sensor_id;sensor_type;location;lat;lon;timestamp;P1;durP1;ratioP1;P2;durP2;ratioP2
6821;SDS011;3449;48.728;8.968;2023-08-21T00:01:46;10.13;;;5.50;;
6821;SDS011;3449;48.728;8.968;2023-08-21T00:04:12;10.30;;;5.10;;
6821;SDS011;3449;48.728;8.968;2023-08-21T00:06:39;6.17;;;5.03;;
6821;SDS011;3449;48.728;8.968;2023-08-21T00:09:06;8.17;;;5.00;;
6821;SDS011;3449;48.728;8.968;2023-08-21T00:11:34;6.53;;;5.40;;
6821;SDS011;3449;48.728;8.968;2023-08-21T00:14:02;11.43;;;6.00;;
6821;SDS011;3449;48.728;8.968;2023-08-21T00:16:29;11.83;;;6.03;;
6821;SDS011;3449;48.728;8.968;2023-08-21T00:18:56;9.83;;;5.53;;
6821;SDS011;3449;48.728;8.968;2023-08-21T00:21:23;9.43;;;5.33;;
6821;SDS011;3449;48.728;8.968;2023-08-21T00:23:50;11.77;;;5.53;;
6821;SDS011;3449;48.728;8.968;2023-08-21T00:26:16;7.97;;;5.00;;
6821;SDS011;3449;48.728;8.968;2023-08-21T00:28:43;7.90;;;5.20;;
6821;SDS011;3449;48.728;8.968;2023-08-21T00:31:12;12.37;;;6.33;;
6821;SDS011;3449;48.728;8.968;2023-08-21T00:33:38;7.77;;;5.53;;
6821;SDS011;3449;48.728;8.968;2023-08-21T00:36:05;15.30;;;6.60;;
6821;SDS011;3449;48.728;8.968;2023-08-21T00:38:32;7.63;;;5.80;;
6821;SDS011;3449;48.728;8.968;2023-08-21T00:40:59;9.23;;;6.43;;
6821;SDS011;3449;48.728;8.968;2023-08-21T00:43:26;9.97;;;5.80;;
6821;SDS011;3449;48.728;8.968;2023-08-21T00:45:53;13.87;;;5.50;;
6821;SDS011;3449;48.728;8.968;2023-08-21T00:48:21;9.73;;;5.37;;
6821;SDS011;3449;48.728;8.968;2023-08-21T00:50:48;7.07;;;5.37;;
6821;SDS011;3449;48.728;8.968;2023-08-21T00:53:16;6.63;;;5.40;;
6821;SDS011;3449;48.728;8.968;2023-08-21T00:55:43;9.10;;;5.80;;
6821;SDS011;3449;48.728;8.968;2023-08-21T00:58:09;11.77;;;5.90;;
6821;SDS011;3449;48.728;8.968;2023-08-21T01:00:38;7.10;;;5.83;;
6821;SDS011;3449;48.728;8.968;2023-08-21T01:03:05;7.30;;;5.47;;
6821;SDS011;3449;48.728;8.968;2023-08-21T01:05:33;9.43;;;5.40;;
6821;SDS011;3449;48.728;8.968;2023-08-21T01:08:02;11.07;;;6.07;;
6821;SDS011;3449;48.728;8.968;2023-08-21T01:10:34;12.70;;;6.57;;
6821;SDS011;3449;48.728;8.968;2023-08-21T01:13:09;5.93;;;5.17;;
6821;SDS011;3449;48.728;8.968;2023-08-21T01:15:43;8.33;;;5.70;;
6821;SDS011;3449;48.728;8.968;2023-08-21T01:18:12;6.33;;;4.90;;
6821;SDS011;3449;48.728;8.968;2023-08-21T01:20:41;8.30;;;5.10;;
6821;SDS011;3449;48.728;8.968;2023-08-21T01:23:09;6.03;;;5.17;;
6821;SDS011;3449;48.728;8.968;2023-08-21T01:25:37;7.60;;;5.87;;
6821;SDS011;3449;48.728;8.968;2023-08-21T01:28:04;6.20;;;5.00;;
6821;SDS011;3449;48.728;8.968;2023-08-21T01:30:31;6.43;;;5.83;;
6821;SDS011;3449;48.728;8.968;2023-08-21T01:33:02;13.87;;;5.40;;
6821;SDS011;3449;48.728;8.968;2023-08-21T01:35:33;7.50;;;5.60;;
6821;SDS011;3449;48.728;8.968;2023-08-21T01:38:01;8.60;;;6.27;;
6821;SDS011;3449;48.728;8.968;2023-08-21T01:40:29;6.20;;;5.17;;
6821;SDS011;3449;48.728;8.968;2023-08-21T01:42:57;6.90;;;5.33;;
6821;SDS011;3449;48.728;8.968;2023-08-21T01:45:24;8.30;;;5.40;;
6821;SDS011;3449;48.728;8.968;2023-08-21T01:47:51;9.87;;;5.60;;
6821;SDS011;3449;48.728;8.968;2023-08-21T01:50:18;8.20;;;5.63;;
6821;SDS011;3449;48.728;8.968;2023-08-21T01:52:44;12.80;;;5.67;;
6821;SDS011;3449;48.728;8.968;2023-08-21T01:55:11;8.60;;;5.30;;
6821;SDS011;3449;48.728;8.968;2023-08-21T01:57:39;9.97;;;6.30;;
6821;SDS011;3449;48.728;8.968;2023-08-21T02:00:09;7.33;;;5.57;;
6821;SDS011;3449;48.728;8.968;2023-08-21T02:02:38;5.60;;;4.97;;
6821;SDS011;3449;48.728;8.968;2023-08-21T02:05:05;9.63;;;5.67;;
6821;SDS011;3449;48.728;8.968;2023-08-21T02:07:32;8.40;;;5.87;;
6821;SDS011;3449;48.728;8.968;2023-08-21T02:09:59;6.00;;;5.40;;
6821;SDS011;3449;48.728;8.968;2023-08-21T02:12:26;11.37;;;5.73;;
6821;SDS011;3449;48.728;8.968;2023-08-21T02:14:53;8.30;;;5.17;;
6821;SDS011;3449;48.728;8.968;2023-08-21T02:17:21;15.10;;;5.97;;
6821;SDS011;3449;48.728;8.968;2023-08-21T02:19:48;6.93;;;5.23;;
6821;SDS011;3449;48.728;8.968;2023-08-21T02:22:15;6.20;;;5.40;;
6821;SDS011;3449;48.728;8.968;2023-08-21T02:24:42;6.57;;;4.97;;
6821;SDS011;3449;48.728;8.968;2023-08-21T02:27:09;5.60;;;4.60;;
6821;SDS011;3449;48.728;8.968;2023-08-21T02:29:35;9.33;;;5.40;;
6821;SDS011;3449;48.728;8.968;2023-08-21T02:32:02;8.97;;;5.83;;
6821;SDS011;3449;48.728;8.968;2023-08-21T02:34:31;7.63;;;4.80;;
6821;SDS011;3449;48.728;8.968;2023-08-21T02:36:58;5.83;;;5.20;;
6821;SDS011;3449;48.728;8.968;2023-08-21T02:39:24;6.40;;;5.40;;
6821;SDS011;3449;48.728;8.968;2023-08-21T02:41:51;7.00;;;5.20;;
6821;SDS011;3449;48.728;8.968;2023-08-21T02:44:18;7.30;;;5.10;;
6821;SDS011;3449;48.728;8.968;2023-08-21T02:46:45;6.83;;;5.90;;
6821;SDS011;3449;48.728;8.968;2023-08-21T02:49:12;10.20;;;6.07;;
6821;SDS011;3449;48.728;8.968;2023-08-21T02:51:40;6.83;;;5.47;;
6821;SDS011;3449;48.728;8.968;2023-08-21T02:54:07;6.60;;;5.40;;
6821;SDS011;3449;48.728;8.968;2023-08-21T02:56:34;7.50;;;5.50;;
6821;SDS011;3449;48.728;8.968;2023-08-21T02:59:01;10.70;;;5.80;;
6821;SDS011;3449;48.728;8.968;2023-08-21T03:01:27;10.27;;;5.67;;
6821;SDS011;3449;48.728;8.968;2023-08-21T03:03:54;9.90;;;5.90;;
6821;SDS011;3449;48.728;8.968;2023-08-21T03:06:21;8.10;;;5.27;;
6821;SDS011;3449;48.728;8.968;2023-08-21T03:08:49;7.23;;;5.50;;
6821;SDS011;3449;48.728;8.968;2023-08-21T03:11:16;7.90;;;5.93;;
6821;SDS011;3449;48.728;8.968;2023-08-21T03:13:43;7.70;;;5.93;;
6821;SDS011;3449;48.728;8.968;2023-08-21T03:16:10;6.60;;;5.37;;
6821;SDS011;3449;48.728;8.968;2023-08-21T03:18:53;7.00;;;5.57;;
6821;SDS011;3449;48.728;8.968;2023-08-21T03:21:21;9.07;;;6.30;;
6821;SDS011;3449;48.728;8.968;2023-08-21T03:23:51;8.03;;;5.93;;
6821;SDS011;3449;48.728;8.968;2023-08-21T03:26:21;7.17;;;5.40;;
6821;SDS011;3449;48.728;8.968;2023-08-21T03:28:48;7.33;;;4.73;;
6821;SDS011;3449;48.728;8.968;2023-08-21T03:31:15;13.20;;;6.00;;
6821;SDS011;3449;48.728;8.968;2023-08-21T03:33:42;7.13;;;5.60;;
6821;SDS011;3449;48.728;8.968;2023-08-21T03:36:08;7.67;;;5.60;;
6821;SDS011;3449;48.728;8.968;2023-08-21T03:38:35;8.17;;;5.50;;
6821;SDS011;3449;48.728;8.968;2023-08-21T03:41:04;6.73;;;5.00;;
6821;SDS011;3449;48.728;8.968;2023-08-21T03:43:30;7.17;;;5.17;;
6821;SDS011;3449;48.728;8.968;2023-08-21T03:45:58;7.63;;;5.30;;
6821;SDS011;3449;48.728;8.968;2023-08-21T03:48:24;6.63;;;5.80;;
6821;SDS011;3449;48.728;8.968;2023-08-21T03:50:51;8.80;;;6.10;;
6821;SDS011;3449;48.728;8.968;2023-08-21T03:53:18;8.30;;;5.97;;
6821;SDS011;3449;48.728;8.968;2023-08-21T03:55:45;6.50;;;4.60;;
6821;SDS011;3449;48.728;8.968;2023-08-21T03:58:13;7.53;;;5.27;;
6821;SDS011;3449;48.728;8.968;2023-08-21T04:00:41;6.43;;;5.10;;
6821;SDS011;3449;48.728;8.968;2023-08-21T04:03:08;11.03;;;5.40;;
6821;SDS011;3449;48.728;8.968;2023-08-21T04:05:34;8.63;;;5.63;;
6821;SDS011;3449;48.728;8.968;2023-08-21T04:08:01;7.00;;;5.57;;
6821;SDS011;3449;48.728;8.968;2023-08-21T04:10:28;5.87;;;5.00;;
6821;SDS011;3449;48.728;8.968;2023-08-21T04:12:55;6.33;;;5.63;;
6821;SDS011;3449;48.728;8.968;2023-08-21T04:15:23;11.83;;;5.87;;
6821;SDS011;3449;48.728;8.968;2023-08-21T04:17:51;7.03;;;5.83;;
6821;SDS011;3449;48.728;8.968;2023-08-21T04:20:17;7.40;;;5.77;;
6821;SDS011;3449;48.728;8.968;2023-08-21T04:22:46;6.07;;;5.00;;
6821;SDS011;3449;48.728;8.968;2023-08-21T04:25:13;7.20;;;5.70;;
6821;SDS011;3449;48.728;8.968;2023-08-21T04:27:40;8.57;;;6.33;;
6821;SDS011;3449;48.728;8.968;2023-08-21T04:30:07;6.23;;;5.20;;
6821;SDS011;3449;48.728;8.968;2023-08-21T04:32:36;8.03;;;5.27;;
6821;SDS011;3449;48.728;8.968;2023-08-21T04:35:03;6.67;;;5.97;;
6821;SDS011;3449;48.728;8.968;2023-08-21T04:37:33;7.67;;;5.37;;
6821;SDS011;3449;48.728;8.968;2023-08-21T04:40:00;13.10;;;5.50;;
6821;SDS011;3449;48.728;8.968;2023-08-21T04:42:26;7.73;;;5.93;;
6821;SDS011;3449;48.728;8.968;2023-08-21T04:44:53;6.60;;;5.90;;
6821;SDS011;3449;48.728;8.968;2023-08-21T04:47:20;7.23;;;6.10;;
6821;SDS011;3449;48.728;8.968;2023-08-21T04:49:50;6.70;;;5.30;;
6821;SDS011;3449;48.728;8.968;2023-08-21T04:52:17;8.03;;;5.33;;
6821;SDS011;3449;48.728;8.968;2023-08-21T04:54:44;9.07;;;5.43;;
6821;SDS011;3449;48.728;8.968;2023-08-21T04:57:10;7.83;;;5.90;;
6821;SDS011;3449;48.728;8.968;2023-08-21T04:59:37;9.10;;;6.07;;
6821;SDS011;3449;48.728;8.968;2023-08-21T05:02:05;7.70;;;5.40;;
6821;SDS011;3449;48.728;8.968;2023-08-21T05:04:32;15.17;;;9.07;;
6821;SDS011;3449;48.728;8.968;2023-08-21T05:07:00;10.00;;;6.53;;
6821;SDS011;3449;48.728;8.968;2023-08-21T05:09:27;11.37;;;6.00;;
6821;SDS011;3449;48.728;8.968;2023-08-21T05:11:54;8.23;;;6.00;;
6821;SDS011;3449;48.728;8.968;2023-08-21T05:14:21;9.83;;;7.10;;
6821;SDS011;3449;48.728;8.968;2023-08-21T05:16:48;7.73;;;6.00;;
6821;SDS011;3449;48.728;8.968;2023-08-21T05:19:15;7.37;;;6.20;;
6821;SDS011;3449;48.728;8.968;2023-08-21T05:21:42;19.37;;;7.70;;
6821;SDS011;3449;48.728;8.968;2023-08-21T05:24:11;11.83;;;6.50;;
6821;SDS011;3449;48.728;8.968;2023-08-21T05:26:38;10.67;;;7.37;;
6821;SDS011;3449;48.728;8.968;2023-08-21T05:29:05;10.00;;;7.23;;
6821;SDS011;3449;48.728;8.968;2023-08-21T05:31:32;7.97;;;6.40;;
6821;SDS011;3449;48.728;8.968;2023-08-21T05:33:59;11.57;;;6.97;;
6821;SDS011;3449;48.728;8.968;2023-08-21T05:36:27;13.23;;;6.97;;
6821;SDS011;3449;48.728;8.968;2023-08-21T05:38:53;10.13;;;7.20;;
6821;SDS011;3449;48.728;8.968;2023-08-21T05:41:23;10.57;;;6.60;;
6821;SDS011;3449;48.728;8.968;2023-08-21T05:43:50;9.77;;;6.53;;
6821;SDS011;3449;48.728;8.968;2023-08-21T05:46:17;8.47;;;6.33;;
6821;SDS011;3449;48.728;8.968;2023-08-21T05:48:44;9.33;;;5.80;;
6821;SDS011;3449;48.728;8.968;2023-08-21T05:51:11;8.93;;;6.00;;
6821;SDS011;3449;48.728;8.968;2023-08-21T05:53:38;7.43;;;5.13;;
6821;SDS011;3449;48.728;8.968;2023-08-21T05:56:05;7.37;;;5.57;;
6821;SDS011;3449;48.728;8.968;2023-08-21T05:58:33;10.50;;;6.40;;
6821;SDS011;3449;48.728;8.968;2023-08-21T06:01:00;9.77;;;6.17;;
6821;SDS011;3449;48.728;8.968;2023-08-21T06:03:27;10.67;;;6.37;;
6821;SDS011;3449;48.728;8.968;2023-08-21T06:05:54;7.80;;;6.67;;
6821;SDS011;3449;48.728;8.968;2023-08-21T06:08:21;7.40;;;5.77;;
6821;SDS011;3449;48.728;8.968;2023-08-21T06:10:50;8.43;;;5.70;;
6821;SDS011;3449;48.728;8.968;2023-08-21T06:13:17;8.07;;;6.07;;
6821;SDS011;3449;48.728;8.968;2023-08-21T06:15:45;10.23;;;6.07;;
6821;SDS011;3449;48.728;8.968;2023-08-21T06:18:12;8.93;;;6.10;;
6821;SDS011;3449;48.728;8.968;2023-08-21T06:20:41;10.40;;;5.43;;
6821;SDS011;3449;48.728;8.968;2023-08-21T06:23:08;10.00;;;6.37;;
6821;SDS011;3449;48.728;8.968;2023-08-21T06:25:35;11.23;;;6.53;;
6821;SDS011;3449;48.728;8.968;2023-08-21T06:28:02;11.67;;;6.00;;
6821;SDS011;3449;48.728;8.968;2023-08-21T06:30:31;9.60;;;6.33;;
6821;SDS011;3449;48.728;8.968;2023-08-21T06:32:59;10.33;;;5.60;;
6821;SDS011;3449;48.728;8.968;2023-08-21T06:35:26;11.77;;;5.57;;
6821;SDS011;3449;48.728;8.968;2023-08-21T06:37:53;6.50;;;5.37;;
6821;SDS011;3449;48.728;8.968;2023-08-21T06:40:20;9.33;;;6.07;;
6821;SDS011;3449;48.728;8.968;2023-08-21T06:42:47;9.60;;;6.20;;
6821;SDS011;3449;48.728;8.968;2023-08-21T06:45:15;10.57;;;5.90;;
6821;SDS011;3449;48.728;8.968;2023-08-21T06:47:42;7.80;;;5.80;;
6821;SDS011;3449;48.728;8.968;2023-08-21T06:50:11;6.37;;;5.17;;
6821;SDS011;3449;48.728;8.968;2023-08-21T06:52:38;9.23;;;6.10;;
6821;SDS011;3449;48.728;8.968;2023-08-21T06:55:06;12.07;;;5.97;;
6821;SDS011;3449;48.728;8.968;2023-08-21T06:57:33;9.77;;;5.60;;
6821;SDS011;3449;48.728;8.968;2023-08-21T07:00:00;5.83;;;5.03;;
6821;SDS011;3449;48.728;8.968;2023-08-21T07:02:28;11.93;;;5.50;;
6821;SDS011;3449;48.728;8.968;2023-08-21T07:04:55;11.40;;;5.43;;
6821;SDS011;3449;48.728;8.968;2023-08-21T07:07:23;11.63;;;5.10;;
6821;SDS011;3449;48.728;8.968;2023-08-21T07:09:50;12.20;;;5.50;;
6821;SDS011;3449;48.728;8.968;2023-08-21T07:12:17;8.33;;;5.23;;
6821;SDS011;3449;48.728;8.968;2023-08-21T07:14:44;9.47;;;5.33;;
6821;SDS011;3449;48.728;8.968;2023-08-21T07:17:10;11.90;;;5.10;;
6821;SDS011;3449;48.728;8.968;2023-08-21T07:19:37;8.00;;;4.90;;
6821;SDS011;3449;48.728;8.968;2023-08-21T07:22:04;7.73;;;5.17;;
6821;SDS011;3449;48.728;8.968;2023-08-21T07:24:32;7.70;;;4.27;;
6821;SDS011;3449;48.728;8.968;2023-08-21T07:26:59;4.73;;;4.23;;
6821;SDS011;3449;48.728;8.968;2023-08-21T07:29:26;8.53;;;4.00;;
6821;SDS011;3449;48.728;8.968;2023-08-21T07:31:53;5.27;;;4.67;;
6821;SDS011;3449;48.728;8.968;2023-08-21T07:34:20;5.07;;;4.57;;
6821;SDS011;3449;48.728;8.968;2023-08-21T07:36:47;7.87;;;4.13;;
6821;SDS011;3449;48.728;8.968;2023-08-21T07:39:13;11.20;;;5.07;;
6821;SDS011;3449;48.728;8.968;2023-08-21T07:41:42;8.57;;;5.40;;
6821;SDS011;3449;48.728;8.968;2023-08-21T07:44:08;5.27;;;4.50;;
6821;SDS011;3449;48.728;8.968;2023-08-21T07:46:35;10.67;;;4.57;;
6821;SDS011;3449;48.728;8.968;2023-08-21T07:49:02;5.77;;;4.60;;
6821;SDS011;3449;48.728;8.968;2023-08-21T07:51:29;9.60;;;4.67;;
6821;SDS011;3449;48.728;8.968;2023-08-21T07:53:56;5.10;;;4.17;;
6821;SDS011;3449;48.728;8.968;2023-08-21T07:56:23;6.37;;;4.83;;
6821;SDS011;3449;48.728;8.968;2023-08-21T07:58:51;5.37;;;4.30;;
6821;SDS011;3449;48.728;8.968;2023-08-21T08:01:18;8.80;;;4.37;;
6821;SDS011;3449;48.728;8.968;2023-08-21T08:03:46;6.27;;;4.33;;
6821;SDS011;3449;48.728;8.968;2023-08-21T08:06:14;4.27;;;3.60;;
6821;SDS011;3449;48.728;8.968;2023-08-21T08:08:41;6.90;;;4.80;;
6821;SDS011;3449;48.728;8.968;2023-08-21T08:11:08;10.07;;;4.73;;
6821;SDS011;3449;48.728;8.968;2023-08-21T08:13:35;6.70;;;3.80;;
6821;SDS011;3449;48.728;8.968;2023-08-21T08:16:03;5.77;;;4.30;;
6821;SDS011;3449;48.728;8.968;2023-08-21T08:18:30;8.00;;;4.50;;
6821;SDS011;3449;48.728;8.968;2023-08-21T08:20:57;7.20;;;4.43;;
6821;SDS011;3449;48.728;8.968;2023-08-21T08:23:23;9.70;;;4.13;;
6821;SDS011;3449;48.728;8.968;2023-08-21T08:25:50;8.10;;;4.47;;
6821;SDS011;3449;48.728;8.968;2023-08-21T08:28:17;5.70;;;4.63;;
6821;SDS011;3449;48.728;8.968;2023-08-21T08:30:45;4.33;;;3.73;;
6821;SDS011;3449;48.728;8.968;2023-08-21T08:33:13;5.50;;;4.63;;
6821;SDS011;3449;48.728;8.968;2023-08-21T08:35:40;8.43;;;3.70;;
6821;SDS011;3449;48.728;8.968;2023-08-21T08:38:07;12.20;;;4.80;;
6821;SDS011;3449;48.728;8.968;2023-08-21T08:40:34;6.10;;;4.93;;
6821;SDS011;3449;48.728;8.968;2023-08-21T08:43:08;8.23;;;4.40;;
6821;SDS011;3449;48.728;8.968;2023-08-21T08:45:37;5.07;;;4.00;;
6821;SDS011;3449;48.728;8.968;2023-08-21T08:48:04;6.23;;;4.60;;
6821;SDS011;3449;48.728;8.968;2023-08-21T08:50:33;7.97;;;4.00;;
6821;SDS011;3449;48.728;8.968;2023-08-21T08:53:01;6.17;;;4.40;;
6821;SDS011;3449;48.728;8.968;2023-08-21T08:55:28;7.30;;;4.83;;
6821;SDS011;3449;48.728;8.968;2023-08-21T08:57:56;6.63;;;4.27;;
6821;SDS011;3449;48.728;8.968;2023-08-21T09:00:23;4.80;;;3.77;;
6821;SDS011;3449;48.728;8.968;2023-08-21T09:02:50;6.07;;;4.07;;
6821;SDS011;3449;48.728;8.968;2023-08-21T09:05:18;4.57;;;3.90;;
6821;SDS011;3449;48.728;8.968;2023-08-21T09:07:46;10.00;;;4.23;;
6821;SDS011;3449;48.728;8.968;2023-08-21T09:10:29;4.27;;;3.87;;
6821;SDS011;3449;48.728;8.968;2023-08-21T09:12:56;6.57;;;4.37;;
6821;SDS011;3449;48.728;8.968;2023-08-21T09:15:27;4.67;;;3.80;;
6821;SDS011;3449;48.728;8.968;2023-08-21T09:17:54;12.53;;;4.53;;
6821;SDS011;3449;48.728;8.968;2023-08-21T09:20:22;6.10;;;3.50;;
6821;SDS011;3449;48.728;8.968;2023-08-21T09:22:53;4.40;;;3.70;;
6821;SDS011;3449;48.728;8.968;2023-08-21T09:25:21;6.57;;;4.00;;
6821;SDS011;3449;48.728;8.968;2023-08-21T09:27:51;3.50;;;3.20;;
6821;SDS011;3449;48.728;8.968;2023-08-21T09:30:19;5.03;;;3.60;;
6821;SDS011;3449;48.728;8.968;2023-08-21T09:32:52;4.97;;;3.90;;
6821;SDS011;3449;48.728;8.968;2023-08-21T09:35:21;4.27;;;3.90;;
6821;SDS011;3449;48.728;8.968;2023-08-21T09:37:48;5.77;;;3.57;;
6821;SDS011;3449;48.728;8.968;2023-08-21T09:40:19;5.80;;;3.83;;
6821;SDS011;3449;48.728;8.968;2023-08-21T09:42:50;3.50;;;3.20;;
6821;SDS011;3449;48.728;8.968;2023-08-21T09:45:19;8.97;;;4.60;;
6821;SDS011;3449;48.728;8.968;2023-08-21T09:47:47;3.90;;;3.50;;
6821;SDS011;3449;48.728;8.968;2023-08-21T09:50:14;5.13;;;3.73;;
6821;SDS011;3449;48.728;8.968;2023-08-21T09:52:42;4.63;;;4.00;;
6821;SDS011;3449;48.728;8.968;2023-08-21T09:55:10;11.83;;;3.80;;
6821;SDS011;3449;48.728;8.968;2023-08-21T09:57:40;6.80;;;4.00;;
6821;SDS011;3449;48.728;8.968;2023-08-21T10:00:08;17.30;;;4.07;;
6821;SDS011;3449;48.728;8.968;2023-08-21T10:02:40;4.20;;;3.80;;
6821;SDS011;3449;48.728;8.968;2023-08-21T10:05:11;4.33;;;3.93;;
6821;SDS011;3449;48.728;8.968;2023-08-21T10:07:39;6.00;;;4.03;;
6821;SDS011;3449;48.728;8.968;2023-08-21T10:10:07;4.40;;;4.00;;
6821;SDS011;3449;48.728;8.968;2023-08-21T10:12:34;5.90;;;3.30;;
6821;SDS011;3449;48.728;8.968;2023-08-21T10:15:02;5.37;;;4.40;;
6821;SDS011;3449;48.728;8.968;2023-08-21T10:17:30;4.00;;;3.60;;
6821;SDS011;3449;48.728;8.968;2023-08-21T10:20:01;4.30;;;3.90;;
6821;SDS011;3449;48.728;8.968;2023-08-21T10:22:37;5.90;;;4.10;;
6821;SDS011;3449;48.728;8.968;2023-08-21T10:25:15;5.37;;;3.53;;
6821;SDS011;3449;48.728;8.968;2023-08-21T10:27:42;9.23;;;4.20;;
6821;SDS011;3449;48.728;8.968;2023-08-21T10:30:15;10.83;;;3.90;;
6821;SDS011;3449;48.728;8.968;2023-08-21T10:32:46;4.03;;;3.63;;
6821;SDS011;3449;48.728;8.968;2023-08-21T10:35:15;4.73;;;4.17;;
6821;SDS011;3449;48.728;8.968;2023-08-21T10:41:04;4.43;;;4.00;;
6821;SDS011;3449;48.728;8.968;2023-08-21T10:43:38;5.23;;;3.90;;
6821;SDS011;3449;48.728;8.968;2023-08-21T10:46:07;5.13;;;3.80;;
6821;SDS011;3449;48.728;8.968;2023-08-21T10:48:34;5.03;;;4.10;;
6821;SDS011;3449;48.728;8.968;2023-08-21T10:51:02;5.60;;;4.10;;
6821;SDS011;3449;48.728;8.968;2023-08-21T10:53:30;5.13;;;4.10;;
6821;SDS011;3449;48.728;8.968;2023-08-21T10:56:00;4.23;;;3.93;;
6821;SDS011;3449;48.728;8.968;2023-08-21T10:58:28;12.27;;;4.30;;
6821;SDS011;3449;48.728;8.968;2023-08-21T11:00:58;5.40;;;4.10;;
6821;SDS011;3449;48.728;8.968;2023-08-21T11:03:26;6.13;;;4.30;;
6821;SDS011;3449;48.728;8.968;2023-08-21T11:06:00;6.70;;;4.50;;
6821;SDS011;3449;48.728;8.968;2023-08-21T11:08:28;5.93;;;4.20;;
6821;SDS011;3449;48.728;8.968;2023-08-21T11:10:55;4.73;;;4.13;;
6821;SDS011;3449;48.728;8.968;2023-08-21T11:13:23;7.43;;;4.67;;
6821;SDS011;3449;48.728;8.968;2023-08-21T11:15:57;8.50;;;4.60;;
6821;SDS011;3449;48.728;8.968;2023-08-21T11:18:31;5.50;;;3.83;;
6821;SDS011;3449;48.728;8.968;2023-08-21T11:21:05;8.83;;;3.80;;
6821;SDS011;3449;48.728;8.968;2023-08-21T11:23:34;4.60;;;3.60;;
6821;SDS011;3449;48.728;8.968;2023-08-21T11:26:01;7.47;;;3.70;;
6821;SDS011;3449;48.728;8.968;2023-08-21T11:28:29;8.13;;;4.57;;
6821;SDS011;3449;48.728;8.968;2023-08-21T11:30:56;5.67;;;4.57;;
6821;SDS011;3449;48.728;8.968;2023-08-21T11:33:24;5.90;;;4.47;;
6821;SDS011;3449;48.728;8.968;2023-08-21T11:35:53;9.33;;;4.60;;
6821;SDS011;3449;48.728;8.968;2023-08-21T11:38:22;7.90;;;3.93;;
6821;SDS011;3449;48.728;8.968;2023-08-21T11:40:51;4.70;;;4.20;;
6821;SDS011;3449;48.728;8.968;2023-08-21T11:43:22;10.73;;;4.43;;
6821;SDS011;3449;48.728;8.968;2023-08-21T11:46:00;5.67;;;4.10;;
6821;SDS011;3449;48.728;8.968;2023-08-21T11:48:27;5.03;;;4.00;;
6821;SDS011;3449;48.728;8.968;2023-08-21T11:50:56;6.60;;;4.77;;
6821;SDS011;3449;48.728;8.968;2023-08-21T11:53:32;4.90;;;3.50;;
6821;SDS011;3449;48.728;8.968;2023-08-21T11:56:00;9.33;;;4.20;;
6821;SDS011;3449;48.728;8.968;2023-08-21T11:58:27;6.00;;;3.87;;
6821;SDS011;3449;48.728;8.968;2023-08-21T12:00:55;5.60;;;4.10;;
6821;SDS011;3449;48.728;8.968;2023-08-21T12:03:28;7.60;;;4.90;;
6821;SDS011;3449;48.728;8.968;2023-08-21T12:05:58;5.30;;;3.80;;
6821;SDS011;3449;48.728;8.968;2023-08-21T12:08:30;4.57;;;3.97;;
6821;SDS011;3449;48.728;8.968;2023-08-21T12:11:05;5.23;;;3.70;;
6821;SDS011;3449;48.728;8.968;2023-08-21T12:13:38;5.50;;;4.00;;
6821;SDS011;3449;48.728;8.968;2023-08-21T12:16:05;3.93;;;3.53;;
6821;SDS011;3449;48.728;8.968;2023-08-21T12:18:32;4.40;;;3.73;;
6821;SDS011;3449;48.728;8.968;2023-08-21T12:21:00;11.40;;;4.50;;
6821;SDS011;3449;48.728;8.968;2023-08-21T12:23:27;5.37;;;4.03;;
6821;SDS011;3449;48.728;8.968;2023-08-21T12:25:54;5.90;;;4.53;;
6821;SDS011;3449;48.728;8.968;2023-08-21T12:28:21;6.23;;;4.27;;
6821;SDS011;3449;48.728;8.968;2023-08-21T12:30:48;4.77;;;4.27;;
6821;SDS011;3449;48.728;8.968;2023-08-21T12:33:15;9.47;;;4.07;;
6821;SDS011;3449;48.728;8.968;2023-08-21T12:35:41;8.23;;;4.23;;
6821;SDS011;3449;48.728;8.968;2023-08-21T12:38:11;9.53;;;4.50;;
6821;SDS011;3449;48.728;8.968;2023-08-21T12:40:38;4.80;;;4.30;;
6821;SDS011;3449;48.728;8.968;2023-08-21T12:43:05;4.90;;;4.40;;
6821;SDS011;3449;48.728;8.968;2023-08-21T12:45:32;4.57;;;4.17;;
6821;SDS011;3449;48.728;8.968;2023-08-21T12:48:00;5.40;;;4.10;;
6821;SDS011;3449;48.728;8.968;2023-08-21T12:50:29;10.00;;;4.20;;
6821;SDS011;3449;48.728;8.968;2023-08-21T12:52:55;5.60;;;4.07;;
6821;SDS011;3449;48.728;8.968;2023-08-21T12:55:24;6.53;;;4.30;;
6821;SDS011;3449;48.728;8.968;2023-08-21T12:57:50;6.80;;;3.93;;
6821;SDS011;3449;48.728;8.968;2023-08-21T13:00:17;5.63;;;4.23;;
6821;SDS011;3449;48.728;8.968;2023-08-21T13:02:44;5.87;;;4.10;;
6821;SDS011;3449;48.728;8.968;2023-08-21T13:05:11;6.53;;;4.50;;
6821;SDS011;3449;48.728;8.968;2023-08-21T13:07:38;4.80;;;4.10;;
6821;SDS011;3449;48.728;8.968;2023-08-21T13:10:05;9.43;;;3.97;;
6821;SDS011;3449;48.728;8.968;2023-08-21T13:12:34;14.67;;;4.67;;
6821;SDS011;3449;48.728;8.968;2023-08-21T13:15:02;9.53;;;4.87;;
6821;SDS011;3449;48.728;8.968;2023-08-21T13:17:29;9.80;;;4.60;;
6821;SDS011;3449;48.728;8.968;2023-08-21T13:19:56;7.07;;;4.77;;
6821;SDS011;3449;48.728;8.968;2023-08-21T13:22:23;6.33;;;4.57;;
6821;SDS011;3449;48.728;8.968;2023-08-21T13:24:50;8.43;;;4.30;;
6821;SDS011;3449;48.728;8.968;2023-08-21T13:27:17;17.80;;;4.30;;
6821;SDS011;3449;48.728;8.968;2023-08-21T13:29:46;4.70;;;4.30;;
6821;SDS011;3449;48.728;8.968;2023-08-21T13:32:13;5.80;;;4.30;;
6821;SDS011;3449;48.728;8.968;2023-08-21T13:34:39;3.80;;;3.40;;
6821;SDS011;3449;48.728;8.968;2023-08-21T13:37:06;4.87;;;4.30;;
6821;SDS011;3449;48.728;8.968;2023-08-21T13:39:33;6.97;;;4.37;;
6821;SDS011;3449;48.728;8.968;2023-08-21T13:42:00;4.40;;;4.00;;
6821;SDS011;3449;48.728;8.968;2023-08-21T13:44:27;6.67;;;4.30;;
6821;SDS011;3449;48.728;8.968;2023-08-21T13:46:55;6.23;;;3.80;;
6821;SDS011;3449;48.728;8.968;2023-08-21T13:49:22;11.63;;;4.80;;
6821;SDS011;3449;48.728;8.968;2023-08-21T13:51:49;5.67;;;4.60;;
6821;SDS011;3449;48.728;8.968;2023-08-21T13:54:15;5.93;;;4.00;;
6821;SDS011;3449;48.728;8.968;2023-08-21T13:56:42;12.50;;;4.97;;
6821;SDS011;3449;48.728;8.968;2023-08-21T13:59:09;4.53;;;4.07;;
6821;SDS011;3449;48.728;8.968;2023-08-21T14:01:36;7.00;;;4.37;;
6821;SDS011;3449;48.728;8.968;2023-08-21T14:04:04;4.67;;;4.17;;
6821;SDS011;3449;48.728;8.968;2023-08-21T14:06:31;5.83;;;4.50;;
6821;SDS011;3449;48.728;8.968;2023-08-21T14:08:58;5.20;;;4.43;;
6821;SDS011;3449;48.728;8.968;2023-08-21T14:11:25;6.93;;;4.40;;
6821;SDS011;3449;48.728;8.968;2023-08-21T14:13:52;6.10;;;3.90;;
6821;SDS011;3449;48.728;8.968;2023-08-21T14:16:19;8.53;;;4.50;;
6821;SDS011;3449;48.728;8.968;2023-08-21T14:18:45;4.90;;;4.40;;
6821;SDS011;3449;48.728;8.968;2023-08-21T14:21:14;5.30;;;4.40;;
6821;SDS011;3449;48.728;8.968;2023-08-21T14:23:40;4.00;;;3.63;;
6821;SDS011;3449;48.728;8.968;2023-08-21T14:26:07;6.90;;;4.27;;
6821;SDS011;3449;48.728;8.968;2023-08-21T14:28:34;6.60;;;4.37;;
6821;SDS011;3449;48.728;8.968;2023-08-21T14:31:01;4.93;;;3.77;;
6821;SDS011;3449;48.728;8.968;2023-08-21T14:33:28;6.00;;;3.73;;
6821;SDS011;3449;48.728;8.968;2023-08-21T14:35:55;5.90;;;3.70;;
6821;SDS011;3449;48.728;8.968;2023-08-21T14:38:23;11.73;;;4.80;;
6821;SDS011;3449;48.728;8.968;2023-08-21T14:40:50;3.90;;;3.60;;
6821;SDS011;3449;48.728;8.968;2023-08-21T14:43:17;4.77;;;4.27;;
6821;SDS011;3449;48.728;8.968;2023-08-21T14:45:44;4.70;;;3.97;;
6821;SDS011;3449;48.728;8.968;2023-08-21T14:48:12;5.00;;;3.90;;
6821;SDS011;3449;48.728;8.968;2023-08-21T14:50:38;4.40;;;3.63;;
6821;SDS011;3449;48.728;8.968;2023-08-21T14:53:05;5.50;;;4.10;;
6821;SDS011;3449;48.728;8.968;2023-08-21T14:55:33;7.07;;;4.13;;
6821;SDS011;3449;48.728;8.968;2023-08-21T14:58:00;7.27;;;4.60;;
6821;SDS011;3449;48.728;8.968;2023-08-21T15:00:30;4.67;;;4.10;;
6821;SDS011;3449;48.728;8.968;2023-08-21T15:02:57;4.70;;;4.00;;
6821;SDS011;3449;48.728;8.968;2023-08-21T15:05:25;6.40;;;4.17;;
6821;SDS011;3449;48.728;8.968;2023-08-21T15:07:52;7.67;;;4.27;;
6821;SDS011;3449;48.728;8.968;2023-08-21T15:10:19;7.57;;;3.70;;
6821;SDS011;3449;48.728;8.968;2023-08-21T15:12:47;7.07;;;3.97;;
6821;SDS011;3449;48.728;8.968;2023-08-21T15:15:14;5.23;;;3.40;;
6821;SDS011;3449;48.728;8.968;2023-08-21T15:17:41;7.93;;;4.27;;
6821;SDS011;3449;48.728;8.968;2023-08-21T15:20:08;6.23;;;3.07;;